Station: Ngayawili (Elcho Island)  

  Atmospheric Gas Attenuation - ITU Rec 676-11   ----------------- dB/100km -----------------
Date Time Temp RH % AH g/m3 Dew Point Wind Direction Speed kph Gust kph Barometer mB Rainfall Since 9am 24GHz 47GHz 76GHz 122GHz 134GHz 241GHz
09/05 13:50 31.2 63 20.38 23.3 19 24 1009.2 0 43.2 39.5 77.0 203.8 226.2 786.7
09/05 13:40 32 60 20.26 23.5 20 30 1009.2 0 42.9 38.9 75.7 200.3 222.1 772.5
09/05 13:30 32.6 61 21.27 24.1 17 26 1009.4 0 44.9 40.4 79.6 210.7 235.0 817.3
09/05 13:20 32.2 61 20.82 23.7 19 24 1009.6 0 44.0 39.8 78.0 206.5 229.7 798.9
09/05 13:10 31.8 60 20.05 23.3 13 15 1009.8 0 42.5 38.6 75.0 198.5 219.8 764.4
09/05 13:00 31.6 61 20.16 23.4 20 35 1010 0 42.7 38.9 75.7 200.3 222.0 772.0
09/05 12:50 31.7 60 19.94 23 26 30 1010.1 0 42.2 38.5 74.6 197.5 218.6 760.0
09/05 12:40 31.5 63 20.71 23.6 19 28 1010.3 0 43.9 40.0 78.2 207.1 230.3 801.0
09/05 12:30 31.3 64 20.82 23.9 19 30 1010.5 0 44.1 40.3 79.0 209.0 232.6 808.8
09/05 12:20 31.2 61 19.74 23 28 32 1010.6 0 41.9 38.4 74.2 196.5 217.2 755.2
09/05 12:10 31 61 19.53 22.6 22 32 1010.9 0 41.5 38.1 73.5 194.6 214.8 746.8
09/05 12:00 31.9 65 21.83 24.7 17 26 1011 0 46.2 41.9 82.9 219.7 245.8 854.7
09/05 11:50 31.1 64 20.6 23.7 17 24 1011.3 0 43.7 40.0 78.2 207.1 230.1 800.1
09/05 11:40 30.7 65 20.47 23.4 20 28 1011.5 0 43.5 40.0 78.1 206.6 229.4 797.7
09/05 11:30 30.9 64 20.38 23.5 19 28 1011.6 0 43.2 39.7 77.4 205.0 227.5 791.1
09/05 11:20 30.6 65 20.36 23.3 15 22 1011.7 0 43.2 39.8 77.7 205.6 228.1 793.2
09/05 11:10 30.5 67 20.88 23.7 11 17 1011.8 0 44.3 40.8 80.1 212.2 236.2 821.2
09/05 11:00 30.2 67 20.54 23.4 19 28 1011.9 0 43.7 40.4 78.9 208.9 232.1 806.8
09/05 10:50 30.1 67 20.43 23.5 17 26 1012.1 0 43.4 40.2 78.5 207.9 230.8 802.3
09/05 10:40 29.3 71 20.73 23.5 22 28 1012.1 0 44.2 41.2 80.7 213.7 237.8 826.5
09/05 10:30 29.6 72 21.37 24.2 17 28 1012.2 0 45.5 42.2 83.4 220.8 246.5 857.1
09/05 10:20 29.6 69 20.48 23.5 13 22 1012.2 0 43.6 40.6 79.3 209.8 233.1 810.2
09/05 10:10 29.4 72 21.14 24 19 26 1012.2 0 45.0 41.9 82.6 218.5 243.7 847.1
09/05 10:00 29 76 21.83 24.3 15 24 1012.2 0 46.5 43.4 86.3 228.4 255.7 888.7
09/05 09:50 28.3 79 21.84 24.3 17 20 1012.3 0 46.6 43.8 87.1 230.7 258.3 897.6
09/05 09:40 27.9 80 21.64 24.1 13 19 1012.3 0 46.2 43.6 86.6 229.3 256.5 891.4
09/05 09:30 28 80 21.76 24.2 13 20 1012.2 0 46.5 43.8 87.1 230.6 258.0 896.7
09/05 09:20 27.7 81 21.67 24.1 15 17 1012.2 0 46.3 43.8 87.0 230.3 257.6 895.4
09/05 09:10 27.8 81 21.79 24.2 20 26 1012.1 0 46.6 44.0 87.5 231.5 259.2 900.7
09/05 09:00 27.4 82 21.58 24.1 17 28 1012.1 0 46.2 43.8 86.9 230.0 257.2 893.9
09/05 08:50 27.1 83 21.48 24 15 19 1012 0 46.0 43.7 86.7 229.7 256.7 891.9
09/05 08:40 26.8 85 21.64 24.1 15 19 1011.8 0 46.4 44.2 87.9 232.6 260.2 904.3
09/05 08:30 26.4 86 21.41 23.9 17 24 1011.8 0 45.9 43.9 87.2 230.9 258.0 896.3
09/05 08:20 26.2 86 21.17 23.7 20 26 1011.6 0 45.5 43.6 86.2 228.3 254.8 885.2
09/05 08:10 25.7 88 21.07 23.6 17 20 1011.7 0 45.3 43.6 86.3 228.5 254.9 885.6
09/05 08:00 25.4 89 20.95 23.5 15 24 1011.7 0 45.1 43.6 86.1 227.9 254.0 882.4
09/05 07:50 24.7 91 20.6 23.1 13 17 1011.7 0 44.4 43.2 85.2 225.4 250.8 871.0
09/05 07:40 24.5 92 20.59 23.1 13 17 1011.6 0 44.4 43.3 85.3 225.8 251.3 872.7
09/05 07:30 24.2 92 20.24 22.8 15 20 1011.4 0 43.7 42.8 83.9 222.1 246.6 856.4
09/05 07:20 24.1 93 20.35 22.9 11 13 1011.3 0 44.0 43.0 84.6 223.8 248.7 863.7
09/05 07:10 23.9 94 20.33 22.9 13 15 1011.3 0 43.9 43.1 84.7 224.2 249.0 864.9
09/05 07:00 23.7 94 20.11 22.7 11 17 1011.2 0 43.5 42.8 83.8 221.8 246.1 854.8
09/05 06:50 23.7 94 20.11 22.7 13 15 1011.1 0 43.5 42.8 83.8 221.8 246.1 854.7
09/05 06:40 23.7 94 20.11 22.7 13 15 1010.9 0 43.5 42.7 83.8 221.8 246.1 854.6
09/05 06:30 23.6 94 19.99 22.6 11 17 1010.9 0 43.2 42.6 83.3 220.5 244.5 849.0
09/05 06:20 23.6 94 19.99 22.6 13 15 1010.8 0 43.2 42.6 83.3 220.5 244.5 848.9
09/05 06:10 23.7 94 20.11 22.7 15 15 1010.7 0 43.5 42.7 83.8 221.8 246.0 854.5
09/05 06:00 23.6 94 19.99 22.6 13 19 1010.6 0 43.2 42.5 83.3 220.5 244.4 848.8
09/05 05:50 23.6 95 20.2 22.8 15 17 1010.4 0 43.7 43.0 84.3 223.2 247.8 860.5
09/05 05:40 23.6 94 19.99 22.6 11 13 1010.2 0 43.2 42.5 83.3 220.4 244.4 848.6
09/05 05:30 23.6 94 19.99 22.6 13 17 1010.1 0 43.2 42.5 83.3 220.4 244.3 848.5
09/05 05:20 23.7 94 20.11 22.7 11 13 1010.2 0 43.5 42.7 83.8 221.7 246.0 854.2
09/05 05:10 23.7 94 20.11 22.7 13 15 1010.1 0 43.5 42.7 83.8 221.7 245.9 854.1
09/05 05:00 23.7 93 19.89 22.5 13 17 1010.1 0 43.0 42.3 82.7 218.8 242.4 841.8
09/05 04:50 23.8 93 20 22.6 15 17 1010.1 0 43.2 42.4 83.1 219.9 243.8 846.8
09/05 04:40 23.8 93 20 22.6 11 15 1010.2 0 43.2 42.4 83.1 219.9 243.9 846.9
09/05 04:30 23.8 93 20 22.6 13 19 1010.3 0 43.2 42.4 83.1 220.0 243.9 846.9
09/05 04:20 23.8 93 20 22.6 11 15 1010.3 0 43.2 42.4 83.1 220.0 243.9 846.9
09/05 04:10 23.8 93 20 22.6 13 15 1010.4 0 43.2 42.5 83.1 220.0 243.9 847.0
09/05 04:00 23.7 94 20.11 22.7 11 13 1010.5 0 43.5 42.7 83.8 221.7 246.0 854.4
09/05 03:50 23.6 95 20.2 22.8 11 11 1010.6 0 43.7 43.0 84.4 223.2 247.8 860.6
09/05 03:40 23.7 94 20.11 22.7 9 11 1010.6 0 43.5 42.7 83.8 221.7 246.0 854.4
09/05 03:30 23.7 94 20.11 22.7 9 13 1010.6 0 43.5 42.7 83.8 221.7 246.0 854.4
09/05 03:20 23.8 94 20.22 22.8 11 13 1010.8 0 43.7 42.9 84.2 222.9 247.5 859.6
09/05 03:10 23.8 93 20 22.6 9 11 1010.9 0 43.2 42.5 83.2 220.1 244.0 847.3
09/05 03:00 23.9 92 19.9 22.5 9 13 1011 0 43.0 42.2 82.6 218.5 242.0 840.6
09/05 02:50 24.1 91 19.91 22.5 9 11 1010.9 0 43.0 42.1 82.4 218.0 241.5 838.9
09/05 02:40 24.2 91 20.02 22.6 11 13 1010.9 0 43.2 42.3 82.8 219.1 243.0 843.9
09/05 02:30 24.3 90 19.92 22.6 13 17 1011 0 43.0 42.1 82.2 217.6 241.1 837.2
09/05 02:20 24.2 90 19.8 22.5 11 15 1011 0 42.8 41.9 81.7 216.3 239.5 831.7
09/05 02:10 24.3 90 19.92 22.6 13 15 1011 0 43.0 42.1 82.2 217.6 241.1 837.2
09/05 02:00 24.4 89 19.81 22.5 13 19 1011 0 42.8 41.8 81.6 215.8 239.0 830.0
09/05 01:50 24.4 89 19.81 22.5 13 19 1011.1 0 42.8 41.8 81.6 215.9 239.0 830.1
09/05 01:40 24.4 88 19.58 22.3 13 17 1011.2 0 42.3 41.4 80.5 212.9 235.4 817.5
09/05 01:30 24.5 88 19.69 22.4 13 20 1011.3 0 42.5 41.5 80.9 214.1 236.8 822.5
09/05 01:20 24.6 88 19.81 22.5 17 22 1011.4 0 42.7 41.7 81.4 215.3 238.4 828.1
09/05 01:10 24.6 87 19.58 22.3 11 13 1011.5 0 42.2 41.3 80.3 212.4 234.8 815.5
09/05 01:00 24.7 87 19.69 22.4 13 20 1011.6 0 42.5 41.4 80.7 213.5 236.2 820.5
09/05 00:50 24.7 87 19.69 22.4 15 19 1011.7 0 42.5 41.4 80.7 213.6 236.2 820.5
09/05 00:40 24.8 87 19.8 22.5 13 19 1011.9 0 42.7 41.6 81.1 214.7 237.7 825.6
09/05 00:30 24.8 87 19.8 22.5 13 20 1012 0 42.7 41.6 81.2 214.7 237.7 825.6
09/05 00:20 24.9 86 19.69 22.4 13 15 1012 0 42.4 41.4 80.5 213.0 235.6 818.5
09/05 00:10 24.9 86 19.69 22.4 11 13 1012.2 0 42.4 41.4 80.5 213.1 235.7 818.6
09/05 00:00 25 85 19.57 22.3 15 20 1012.2 0 42.2 41.1 79.8 211.3 233.5 811.0
08/05 23:50 25.1 85 19.68 22.4 13 15 1012.2 0 42.4 41.2 80.3 212.4 234.9 815.9
08/05 23:40 25.3 84 19.66 22.4 15 19 1012.2 0 42.3 41.1 80.0 211.6 233.9 812.7
08/05 23:30 25.3 83 19.43 22.2 15 24 1012.3 0 41.8 40.7 78.9 208.7 230.4 800.2
08/05 23:20 25.5 82 19.41 22.2 15 19 1012.4 0 41.8 40.5 78.6 207.9 229.5 797.1
08/05 23:10 25.6 82 19.52 22.3 13 17 1012.4 0 42.0 40.7 79.0 209.0 230.9 802.0
08/05 23:00 25.7 82 19.63 22.4 17 26 1012.4 0 42.2 40.9 79.4 210.1 232.3 806.8
08/05 22:50 25.8 82 19.74 22.5 17 24 1012.3 0 42.5 41.0 79.8 211.2 233.6 811.7
08/05 22:40 26 81 19.72 22.5 17 22 1012.3 0 42.4 40.9 79.5 210.4 232.7 808.4
08/05 22:30 26 81 19.72 22.5 19 28 1012.3 0 42.4 40.9 79.5 210.4 232.7 808.4
08/05 22:20 26.1 81 19.83 22.6 19 24 1012.2 0 42.6 41.0 79.9 211.5 234.1 813.2
08/05 22:10 26.1 81 19.83 22.6 19 22 1012.2 0 42.6 41.0 79.9 211.5 234.1 813.2
08/05 22:00 26.2 80 19.69 22.5 19 26 1012.3 0 42.3 40.7 79.2 209.4 231.6 804.7
08/05 21:50 26.2 80 19.69 22.5 17 22 1012.3 0 42.3 40.7 79.2 209.4 231.6 804.7
08/05 21:40 26.3 80 19.8 22.6 13 15 1012.3 0 42.5 40.9 79.6 210.6 233.0 809.5
08/05 21:30 26.4 79 19.67 22.5 19 30 1012.2 0 42.2 40.6 78.8 208.6 230.7 801.4
08/05 21:20 26.5 79 19.78 22.6 19 24 1012.3 0 42.5 40.8 79.3 209.7 232.1 806.3

Last Refresh: 09-May-2026 13:49:01

Bureau of Meteorology